sensor_id;sensor_type;location;lat;lon;timestamp;temperature;humidity
28845;DHT22;15976;47.938;7.758;2024-01-16T00:02:06;1.40;65.10
28845;DHT22;15976;47.938;7.758;2024-01-16T00:04:37;1.40;65.10
28845;DHT22;15976;47.938;7.758;2024-01-16T00:07:04;1.40;65.10
28845;DHT22;15976;47.938;7.758;2024-01-16T00:09:35;1.30;65.00
28845;DHT22;15976;47.938;7.758;2024-01-16T00:12:02;1.30;65.10
28845;DHT22;15976;47.938;7.758;2024-01-16T00:14:34;1.30;65.20
28845;DHT22;15976;47.938;7.758;2024-01-16T00:17:01;1.20;65.90
28845;DHT22;15976;47.938;7.758;2024-01-16T00:19:28;1.20;65.10
28845;DHT22;15976;47.938;7.758;2024-01-16T00:21:56;1.20;65.10
28845;DHT22;15976;47.938;7.758;2024-01-16T00:24:23;1.20;65.10
28845;DHT22;15976;47.938;7.758;2024-01-16T00:26:50;1.20;65.00
28845;DHT22;15976;47.938;7.758;2024-01-16T00:29:17;1.20;65.00
28845;DHT22;15976;47.938;7.758;2024-01-16T00:31:45;1.20;65.70
28845;DHT22;15976;47.938;7.758;2024-01-16T00:34:12;1.20;64.80
28845;DHT22;15976;47.938;7.758;2024-01-16T00:36:39;1.10;65.00
28845;DHT22;15976;47.938;7.758;2024-01-16T00:39:06;1.10;65.00
28845;DHT22;15976;47.938;7.758;2024-01-16T00:41:34;1.10;65.00
28845;DHT22;15976;47.938;7.758;2024-01-16T00:44:01;1.10;65.00
28845;DHT22;15976;47.938;7.758;2024-01-16T00:46:30;1.10;65.00
28845;DHT22;15976;47.938;7.758;2024-01-16T00:48:57;1.10;64.80
28845;DHT22;15976;47.938;7.758;2024-01-16T00:51:24;1.10;64.80
28845;DHT22;15976;47.938;7.758;2024-01-16T00:53:51;1.00;64.80
28845;DHT22;15976;47.938;7.758;2024-01-16T00:56:18;1.00;64.80
28845;DHT22;15976;47.938;7.758;2024-01-16T00:58:46;1.00;64.80
28845;DHT22;15976;47.938;7.758;2024-01-16T01:01:13;1.00;64.70
28845;DHT22;15976;47.938;7.758;2024-01-16T01:03:40;0.90;64.60
28845;DHT22;15976;47.938;7.758;2024-01-16T01:06:07;1.00;64.70
28845;DHT22;15976;47.938;7.758;2024-01-16T01:08:35;1.00;64.60
28845;DHT22;15976;47.938;7.758;2024-01-16T01:11:02;1.00;64.60
28845;DHT22;15976;47.938;7.758;2024-01-16T01:13:30;0.90;64.50
28845;DHT22;15976;47.938;7.758;2024-01-16T01:15:57;0.90;64.60
28845;DHT22;15976;47.938;7.758;2024-01-16T01:18:24;0.90;64.50
28845;DHT22;15976;47.938;7.758;2024-01-16T01:20:51;0.90;64.50
28845;DHT22;15976;47.938;7.758;2024-01-16T01:23:18;0.90;64.40
28845;DHT22;15976;47.938;7.758;2024-01-16T01:25:45;0.90;64.50
28845;DHT22;15976;47.938;7.758;2024-01-16T01:28:12;0.80;64.40
28845;DHT22;15976;47.938;7.758;2024-01-16T01:30:39;0.90;74.80
28845;DHT22;15976;47.938;7.758;2024-01-16T01:33:07;0.90;74.60
28845;DHT22;15976;47.938;7.758;2024-01-16T01:35:34;0.90;75.20
28845;DHT22;15976;47.938;7.758;2024-01-16T01:38:01;0.80;74.30
28845;DHT22;15976;47.938;7.758;2024-01-16T01:40:28;0.80;66.90
28845;DHT22;15976;47.938;7.758;2024-01-16T01:42:55;0.80;67.60
28845;DHT22;15976;47.938;7.758;2024-01-16T01:45:22;0.70;67.50
28845;DHT22;15976;47.938;7.758;2024-01-16T01:47:50;0.70;67.50
28845;DHT22;15976;47.938;7.758;2024-01-16T01:50:17;0.70;67.80
28845;DHT22;15976;47.938;7.758;2024-01-16T01:52:45;0.70;68.10
28845;DHT22;15976;47.938;7.758;2024-01-16T01:55:13;0.70;68.20
28845;DHT22;15976;47.938;7.758;2024-01-16T01:57:41;0.60;67.50
28845;DHT22;15976;47.938;7.758;2024-01-16T02:00:10;0.60;65.50
28845;DHT22;15976;47.938;7.758;2024-01-16T02:02:41;0.50;65.70
28845;DHT22;15976;47.938;7.758;2024-01-16T02:05:09;0.50;66.40
28845;DHT22;15976;47.938;7.758;2024-01-16T02:07:38;0.50;66.50
28845;DHT22;15976;47.938;7.758;2024-01-16T02:10:05;0.50;66.60
28845;DHT22;15976;47.938;7.758;2024-01-16T02:12:33;0.40;66.50
28845;DHT22;15976;47.938;7.758;2024-01-16T02:15:00;0.40;67.00
28845;DHT22;15976;47.938;7.758;2024-01-16T02:17:27;0.40;67.10
28845;DHT22;15976;47.938;7.758;2024-01-16T02:19:55;0.40;67.00
28845;DHT22;15976;47.938;7.758;2024-01-16T02:22:23;0.40;67.00
28845;DHT22;15976;47.938;7.758;2024-01-16T02:24:52;0.40;66.90
28845;DHT22;15976;47.938;7.758;2024-01-16T02:27:19;0.40;67.00
28845;DHT22;15976;47.938;7.758;2024-01-16T02:29:46;0.40;67.10
28845;DHT22;15976;47.938;7.758;2024-01-16T02:32:15;0.40;67.20
28845;DHT22;15976;47.938;7.758;2024-01-16T02:34:42;0.40;67.20
28845;DHT22;15976;47.938;7.758;2024-01-16T02:37:10;0.40;67.10
28845;DHT22;15976;47.938;7.758;2024-01-16T02:39:38;0.40;66.90
28845;DHT22;15976;47.938;7.758;2024-01-16T02:42:07;0.30;66.80
28845;DHT22;15976;47.938;7.758;2024-01-16T02:44:34;0.30;66.80
28845;DHT22;15976;47.938;7.758;2024-01-16T02:47:02;0.30;66.70
28845;DHT22;15976;47.938;7.758;2024-01-16T02:49:29;0.30;66.50
28845;DHT22;15976;47.938;7.758;2024-01-16T02:51:59;0.30;66.60
28845;DHT22;15976;47.938;7.758;2024-01-16T02:54:26;0.30;66.60
28845;DHT22;15976;47.938;7.758;2024-01-16T02:56:53;0.30;66.60
28845;DHT22;15976;47.938;7.758;2024-01-16T02:59:20;0.20;66.70
28845;DHT22;15976;47.938;7.758;2024-01-16T03:01:47;0.10;67.10
28845;DHT22;15976;47.938;7.758;2024-01-16T03:04:14;0.10;66.90
28845;DHT22;15976;47.938;7.758;2024-01-16T03:06:41;0.10;66.40
28845;DHT22;15976;47.938;7.758;2024-01-16T03:09:09;0.10;66.00
28845;DHT22;15976;47.938;7.758;2024-01-16T03:11:36;0.00;65.60
28845;DHT22;15976;47.938;7.758;2024-01-16T03:14:03;0.00;65.40
28845;DHT22;15976;47.938;7.758;2024-01-16T03:16:32;0.00;65.60
28845;DHT22;15976;47.938;7.758;2024-01-16T03:18:59;0.00;65.50
28845;DHT22;15976;47.938;7.758;2024-01-16T03:21:26;0.00;65.20
28845;DHT22;15976;47.938;7.758;2024-01-16T03:23:53;0.00;65.10
28845;DHT22;15976;47.938;7.758;2024-01-16T03:26:21;0.00;65.10
28845;DHT22;15976;47.938;7.758;2024-01-16T03:28:49;0.00;65.30
28845;DHT22;15976;47.938;7.758;2024-01-16T03:31:16;0.00;65.40
28845;DHT22;15976;47.938;7.758;2024-01-16T03:33:44;0.00;65.40
28845;DHT22;15976;47.938;7.758;2024-01-16T03:36:11;0.00;65.20
28845;DHT22;15976;47.938;7.758;2024-01-16T03:38:40;0.00;65.30
28845;DHT22;15976;47.938;7.758;2024-01-16T03:41:07;0.00;65.20
28845;DHT22;15976;47.938;7.758;2024-01-16T03:43:35;0.00;65.00
28845;DHT22;15976;47.938;7.758;2024-01-16T03:46:02;0.00;64.90
28845;DHT22;15976;47.938;7.758;2024-01-16T03:48:29;-0.10;65.00
28845;DHT22;15976;47.938;7.758;2024-01-16T03:50:57;-0.10;65.20
28845;DHT22;15976;47.938;7.758;2024-01-16T03:53:24;-0.10;65.40
28845;DHT22;15976;47.938;7.758;2024-01-16T03:55:51;-0.10;65.40
28845;DHT22;15976;47.938;7.758;2024-01-16T03:58:18;-0.20;65.40
28845;DHT22;15976;47.938;7.758;2024-01-16T04:00:46;-0.10;65.40
28845;DHT22;15976;47.938;7.758;2024-01-16T04:03:13;-0.10;65.20
28845;DHT22;15976;47.938;7.758;2024-01-16T04:05:40;-0.10;65.00
28845;DHT22;15976;47.938;7.758;2024-01-16T04:08:07;-0.10;65.00
28845;DHT22;15976;47.938;7.758;2024-01-16T04:10:35;-0.20;65.10
28845;DHT22;15976;47.938;7.758;2024-01-16T04:13:02;-0.10;65.20
28845;DHT22;15976;47.938;7.758;2024-01-16T04:15:30;-0.20;65.20
28845;DHT22;15976;47.938;7.758;2024-01-16T04:17:57;-0.20;65.30
28845;DHT22;15976;47.938;7.758;2024-01-16T04:20:24;-0.20;65.40
28845;DHT22;15976;47.938;7.758;2024-01-16T04:22:51;-0.10;65.40
28845;DHT22;15976;47.938;7.758;2024-01-16T04:25:18;-0.10;65.30
28845;DHT22;15976;47.938;7.758;2024-01-16T04:27:45;-0.10;65.10
28845;DHT22;15976;47.938;7.758;2024-01-16T04:30:13;-0.10;65.20
28845;DHT22;15976;47.938;7.758;2024-01-16T04:32:40;0.00;65.50
28845;DHT22;15976;47.938;7.758;2024-01-16T04:35:09;0.00;65.30
28845;DHT22;15976;47.938;7.758;2024-01-16T04:37:36;0.00;65.20
28845;DHT22;15976;47.938;7.758;2024-01-16T04:40:05;0.00;65.10
28845;DHT22;15976;47.938;7.758;2024-01-16T04:42:32;0.00;65.20
28845;DHT22;15976;47.938;7.758;2024-01-16T04:45:00;0.00;65.10
28845;DHT22;15976;47.938;7.758;2024-01-16T04:47:28;0.00;64.90
28845;DHT22;15976;47.938;7.758;2024-01-16T04:49:55;-0.10;64.90
28845;DHT22;15976;47.938;7.758;2024-01-16T04:52:23;-0.10;64.90
28845;DHT22;15976;47.938;7.758;2024-01-16T04:54:50;-0.10;64.80
28845;DHT22;15976;47.938;7.758;2024-01-16T04:57:17;-0.20;64.70
28845;DHT22;15976;47.938;7.758;2024-01-16T04:59:44;-0.20;64.80
28845;DHT22;15976;47.938;7.758;2024-01-16T05:02:11;-0.20;64.70
28845;DHT22;15976;47.938;7.758;2024-01-16T05:04:38;-0.20;64.60
28845;DHT22;15976;47.938;7.758;2024-01-16T05:07:05;-0.30;64.70
28845;DHT22;15976;47.938;7.758;2024-01-16T05:09:33;-0.40;64.70
28845;DHT22;15976;47.938;7.758;2024-01-16T05:12:00;-0.40;64.70
28845;DHT22;15976;47.938;7.758;2024-01-16T05:14:27;-0.40;65.00
28845;DHT22;15976;47.938;7.758;2024-01-16T05:16:54;-0.40;65.20
28845;DHT22;15976;47.938;7.758;2024-01-16T05:19:22;-0.30;65.20
28845;DHT22;15976;47.938;7.758;2024-01-16T05:21:49;-0.40;65.00
28845;DHT22;15976;47.938;7.758;2024-01-16T05:24:16;-0.40;65.10
28845;DHT22;15976;47.938;7.758;2024-01-16T05:26:43;-0.40;65.20
28845;DHT22;15976;47.938;7.758;2024-01-16T05:29:10;-0.40;66.00
28845;DHT22;15976;47.938;7.758;2024-01-16T05:31:42;-0.40;65.40
28845;DHT22;15976;47.938;7.758;2024-01-16T05:34:09;-0.40;65.20
28845;DHT22;15976;47.938;7.758;2024-01-16T05:36:37;-0.40;64.90
28845;DHT22;15976;47.938;7.758;2024-01-16T05:39:04;-0.40;65.00
28845;DHT22;15976;47.938;7.758;2024-01-16T05:41:34;-0.40;65.10
28845;DHT22;15976;47.938;7.758;2024-01-16T05:44:02;-0.40;65.10
28845;DHT22;15976;47.938;7.758;2024-01-16T05:46:33;-0.50;65.00
28845;DHT22;15976;47.938;7.758;2024-01-16T05:49:00;-0.50;64.80
28845;DHT22;15976;47.938;7.758;2024-01-16T05:51:28;-0.60;65.00
28845;DHT22;15976;47.938;7.758;2024-01-16T05:53:56;-0.60;65.00
28845;DHT22;15976;47.938;7.758;2024-01-16T05:56:23;-0.60;65.20
28845;DHT22;15976;47.938;7.758;2024-01-16T05:58:50;-0.70;65.20
28845;DHT22;15976;47.938;7.758;2024-01-16T06:01:19;-0.70;65.10
28845;DHT22;15976;47.938;7.758;2024-01-16T06:03:46;-0.70;65.20
28845;DHT22;15976;47.938;7.758;2024-01-16T06:06:16;-0.70;65.10
28845;DHT22;15976;47.938;7.758;2024-01-16T06:08:43;-0.70;65.10
28845;DHT22;15976;47.938;7.758;2024-01-16T06:11:11;-0.70;65.10
28845;DHT22;15976;47.938;7.758;2024-01-16T06:13:43;-0.70;65.10
28845;DHT22;15976;47.938;7.758;2024-01-16T06:16:11;-0.70;65.30
28845;DHT22;15976;47.938;7.758;2024-01-16T06:18:38;-0.80;66.10
28845;DHT22;15976;47.938;7.758;2024-01-16T06:21:05;-0.80;65.10
28845;DHT22;15976;47.938;7.758;2024-01-16T06:23:32;-0.80;65.20
28845;DHT22;15976;47.938;7.758;2024-01-16T06:26:00;-0.80;65.20
28845;DHT22;15976;47.938;7.758;2024-01-16T06:28:27;-0.80;65.40
28845;DHT22;15976;47.938;7.758;2024-01-16T06:30:54;-0.80;65.20
28845;DHT22;15976;47.938;7.758;2024-01-16T06:33:22;-0.80;65.10
28845;DHT22;15976;47.938;7.758;2024-01-16T06:35:49;-0.90;65.00
28845;DHT22;15976;47.938;7.758;2024-01-16T06:38:20;-0.90;65.10
28845;DHT22;15976;47.938;7.758;2024-01-16T06:40:47;-0.90;65.20
28845;DHT22;15976;47.938;7.758;2024-01-16T06:43:15;-0.90;65.20
28845;DHT22;15976;47.938;7.758;2024-01-16T06:45:43;-1.00;65.20
28845;DHT22;15976;47.938;7.758;2024-01-16T06:48:10;-1.10;65.50
28845;DHT22;15976;47.938;7.758;2024-01-16T06:50:37;-1.20;65.70
28845;DHT22;15976;47.938;7.758;2024-01-16T06:53:05;-1.20;65.90
28845;DHT22;15976;47.938;7.758;2024-01-16T06:55:35;-1.20;65.80
28845;DHT22;15976;47.938;7.758;2024-01-16T06:58:02;-1.10;65.80
28845;DHT22;15976;47.938;7.758;2024-01-16T07:00:29;-1.10;65.80
28845;DHT22;15976;47.938;7.758;2024-01-16T07:02:56;-1.10;65.70
28845;DHT22;15976;47.938;7.758;2024-01-16T07:05:23;-1.10;65.70
28845;DHT22;15976;47.938;7.758;2024-01-16T07:07:51;-1.10;65.70
28845;DHT22;15976;47.938;7.758;2024-01-16T07:10:18;-1.10;65.50
28845;DHT22;15976;47.938;7.758;2024-01-16T07:12:45;-1.10;65.50
28845;DHT22;15976;47.938;7.758;2024-01-16T07:15:13;-1.10;65.50
28845;DHT22;15976;47.938;7.758;2024-01-16T07:17:40;-1.10;65.40
28845;DHT22;15976;47.938;7.758;2024-01-16T07:20:08;-1.10;65.40
28845;DHT22;15976;47.938;7.758;2024-01-16T07:22:39;-1.10;65.40
28845;DHT22;15976;47.938;7.758;2024-01-16T07:25:07;-1.10;65.40
28845;DHT22;15976;47.938;7.758;2024-01-16T07:27:34;-1.10;65.60
28845;DHT22;15976;47.938;7.758;2024-01-16T07:30:04;-1.10;65.60
28845;DHT22;15976;47.938;7.758;2024-01-16T07:32:32;-1.10;65.60
28845;DHT22;15976;47.938;7.758;2024-01-16T07:34:59;-1.00;65.70
28845;DHT22;15976;47.938;7.758;2024-01-16T07:37:27;-1.00;65.50
28845;DHT22;15976;47.938;7.758;2024-01-16T07:39:54;-1.00;65.30
28845;DHT22;15976;47.938;7.758;2024-01-16T07:42:21;-1.00;65.20
28845;DHT22;15976;47.938;7.758;2024-01-16T07:44:48;-0.90;65.10
28845;DHT22;15976;47.938;7.758;2024-01-16T07:47:16;-0.90;65.00
28845;DHT22;15976;47.938;7.758;2024-01-16T07:49:43;-0.90;65.00
28845;DHT22;15976;47.938;7.758;2024-01-16T07:52:10;-0.90;65.00
28845;DHT22;15976;47.938;7.758;2024-01-16T07:54:39;-0.90;64.80
28845;DHT22;15976;47.938;7.758;2024-01-16T07:57:06;-0.90;64.90
28845;DHT22;15976;47.938;7.758;2024-01-16T07:59:33;-0.90;65.10
28845;DHT22;15976;47.938;7.758;2024-01-16T08:02:00;-0.90;65.30
28845;DHT22;15976;47.938;7.758;2024-01-16T08:04:27;-0.80;65.20
28845;DHT22;15976;47.938;7.758;2024-01-16T08:06:54;-0.80;65.20
28845;DHT22;15976;47.938;7.758;2024-01-16T08:09:22;-0.80;65.20
28845;DHT22;15976;47.938;7.758;2024-01-16T08:11:49;-0.80;65.20
28845;DHT22;15976;47.938;7.758;2024-01-16T08:14:16;-0.70;65.10
28845;DHT22;15976;47.938;7.758;2024-01-16T08:16:43;-0.70;65.20
28845;DHT22;15976;47.938;7.758;2024-01-16T08:19:10;-0.70;64.90
28845;DHT22;15976;47.938;7.758;2024-01-16T08:21:37;-0.70;64.90
28845;DHT22;15976;47.938;7.758;2024-01-16T08:24:04;-0.60;64.90
28845;DHT22;15976;47.938;7.758;2024-01-16T08:26:31;-0.60;65.00
28845;DHT22;15976;47.938;7.758;2024-01-16T08:28:58;-0.60;64.80
28845;DHT22;15976;47.938;7.758;2024-01-16T08:31:25;-0.60;64.60
28845;DHT22;15976;47.938;7.758;2024-01-16T08:33:52;-0.60;65.40
28845;DHT22;15976;47.938;7.758;2024-01-16T08:36:23;-0.50;64.60
28845;DHT22;15976;47.938;7.758;2024-01-16T08:38:50;-0.50;64.60
28845;DHT22;15976;47.938;7.758;2024-01-16T08:41:17;-0.50;64.60
28845;DHT22;15976;47.938;7.758;2024-01-16T08:43:45;-0.50;64.40
28845;DHT22;15976;47.938;7.758;2024-01-16T08:46:12;-0.50;64.40
28845;DHT22;15976;47.938;7.758;2024-01-16T08:48:42;-0.50;64.40
28845;DHT22;15976;47.938;7.758;2024-01-16T08:51:11;-0.50;64.30
28845;DHT22;15976;47.938;7.758;2024-01-16T08:53:42;-0.50;64.50
28845;DHT22;15976;47.938;7.758;2024-01-16T08:56:09;-0.50;64.70
28845;DHT22;15976;47.938;7.758;2024-01-16T08:58:37;-0.40;64.90
28845;DHT22;15976;47.938;7.758;2024-01-16T09:01:06;-0.30;65.00
28845;DHT22;15976;47.938;7.758;2024-01-16T09:03:34;-0.30;65.60
28845;DHT22;15976;47.938;7.758;2024-01-16T09:06:01;-0.20;64.60
28845;DHT22;15976;47.938;7.758;2024-01-16T09:08:29;-0.10;64.60
28845;DHT22;15976;47.938;7.758;2024-01-16T09:10:56;-0.10;64.40
28845;DHT22;15976;47.938;7.758;2024-01-16T09:13:23;0.00;64.30
28845;DHT22;15976;47.938;7.758;2024-01-16T09:15:50;0.00;64.30
28845;DHT22;15976;47.938;7.758;2024-01-16T09:18:17;0.00;64.50
28845;DHT22;15976;47.938;7.758;2024-01-16T09:20:45;0.10;64.50
28845;DHT22;15976;47.938;7.758;2024-01-16T09:23:12;0.10;64.50
28845;DHT22;15976;47.938;7.758;2024-01-16T09:25:40;0.20;64.60
28845;DHT22;15976;47.938;7.758;2024-01-16T09:28:07;0.20;64.70
28845;DHT22;15976;47.938;7.758;2024-01-16T09:30:34;0.30;64.50
28845;DHT22;15976;47.938;7.758;2024-01-16T09:33:01;0.40;64.50
28845;DHT22;15976;47.938;7.758;2024-01-16T09:35:30;0.40;64.40
28845;DHT22;15976;47.938;7.758;2024-01-16T09:37:57;0.50;64.40
28845;DHT22;15976;47.938;7.758;2024-01-16T09:40:24;0.50;64.40
28845;DHT22;15976;47.938;7.758;2024-01-16T09:42:51;0.50;64.40
28845;DHT22;15976;47.938;7.758;2024-01-16T09:45:21;0.60;64.60
28845;DHT22;15976;47.938;7.758;2024-01-16T09:47:50;0.60;64.40
28845;DHT22;15976;47.938;7.758;2024-01-16T09:50:19;0.50;64.60
28845;DHT22;15976;47.938;7.758;2024-01-16T09:52:46;0.60;65.10
28845;DHT22;15976;47.938;7.758;2024-01-16T09:55:17;0.70;65.20
28845;DHT22;15976;47.938;7.758;2024-01-16T09:57:46;0.90;64.90
28845;DHT22;15976;47.938;7.758;2024-01-16T10:00:13;1.10;64.80
28845;DHT22;15976;47.938;7.758;2024-01-16T10:02:43;1.20;64.40
28845;DHT22;15976;47.938;7.758;2024-01-16T10:05:11;1.40;64.20
28845;DHT22;15976;47.938;7.758;2024-01-16T10:07:40;1.50;64.00
28845;DHT22;15976;47.938;7.758;2024-01-16T10:10:08;1.60;63.90
28845;DHT22;15976;47.938;7.758;2024-01-16T10:12:39;1.70;63.80
28845;DHT22;15976;47.938;7.758;2024-01-16T10:15:07;1.80;63.70
28845;DHT22;15976;47.938;7.758;2024-01-16T10:17:38;2.00;63.70
28845;DHT22;15976;47.938;7.758;2024-01-16T10:20:11;2.10;63.50
28845;DHT22;15976;47.938;7.758;2024-01-16T10:22:53;2.10;63.20
28845;DHT22;15976;47.938;7.758;2024-01-16T10:25:21;2.20;63.10
28845;DHT22;15976;47.938;7.758;2024-01-16T10:27:49;2.20;63.10
28845;DHT22;15976;47.938;7.758;2024-01-16T10:30:29;2.20;63.20
28845;DHT22;15976;47.938;7.758;2024-01-16T10:33:15;2.30;63.40
28845;DHT22;15976;47.938;7.758;2024-01-16T10:35:45;2.30;63.40
28845;DHT22;15976;47.938;7.758;2024-01-16T10:38:20;2.40;63.20
28845;DHT22;15976;47.938;7.758;2024-01-16T10:41:05;2.40;63.20
28845;DHT22;15976;47.938;7.758;2024-01-16T10:43:33;2.30;63.10
28845;DHT22;15976;47.938;7.758;2024-01-16T10:46:12;2.30;63.20
28845;DHT22;15976;47.938;7.758;2024-01-16T10:48:45;2.30;63.30
28845;DHT22;15976;47.938;7.758;2024-01-16T10:51:26;2.30;63.40
28845;DHT22;15976;47.938;7.758;2024-01-16T10:54:04;2.20;63.50
28845;DHT22;15976;47.938;7.758;2024-01-16T10:56:36;2.20;63.60
28845;DHT22;15976;47.938;7.758;2024-01-16T11:01:43;2.20;63.90
28845;DHT22;15976;47.938;7.758;2024-01-16T11:04:12;2.20;63.80
28845;DHT22;15976;47.938;7.758;2024-01-16T11:06:42;2.30;63.80
28845;DHT22;15976;47.938;7.758;2024-01-16T11:09:13;2.30;63.70
28845;DHT22;15976;47.938;7.758;2024-01-16T11:11:46;2.30;63.80
28845;DHT22;15976;47.938;7.758;2024-01-16T11:14:14;2.30;63.90
28845;DHT22;15976;47.938;7.758;2024-01-16T11:16:42;2.30;64.00
28845;DHT22;15976;47.938;7.758;2024-01-16T11:19:11;2.30;64.10
28845;DHT22;15976;47.938;7.758;2024-01-16T11:21:58;2.30;64.20
28845;DHT22;15976;47.938;7.758;2024-01-16T11:24:26;2.40;64.20
28845;DHT22;15976;47.938;7.758;2024-01-16T11:26:53;2.50;64.10
28845;DHT22;15976;47.938;7.758;2024-01-16T11:31:56;2.60;63.60
28845;DHT22;15976;47.938;7.758;2024-01-16T11:37:14;2.70;63.50
28845;DHT22;15976;47.938;7.758;2024-01-16T11:39:43;2.70;63.60
28845;DHT22;15976;47.938;7.758;2024-01-16T11:42:10;2.80;63.50
28845;DHT22;15976;47.938;7.758;2024-01-16T11:44:49;2.90;63.50
28845;DHT22;15976;47.938;7.758;2024-01-16T11:47:22;2.90;63.40
28845;DHT22;15976;47.938;7.758;2024-01-16T11:52:44;2.90;63.30
28845;DHT22;15976;47.938;7.758;2024-01-16T11:55:26;2.90;63.20
28845;DHT22;15976;47.938;7.758;2024-01-16T12:00:55;2.90;62.70
28845;DHT22;15976;47.938;7.758;2024-01-16T12:03:24;2.90;62.90
28845;DHT22;15976;47.938;7.758;2024-01-16T12:06:02;2.90;63.10
28845;DHT22;15976;47.938;7.758;2024-01-16T12:08:31;2.90;63.00
28845;DHT22;15976;47.938;7.758;2024-01-16T12:10:58;2.90;63.00
28845;DHT22;15976;47.938;7.758;2024-01-16T12:13:26;3.00;63.00
28845;DHT22;15976;47.938;7.758;2024-01-16T12:16:00;3.00;63.00
28845;DHT22;15976;47.938;7.758;2024-01-16T12:18:28;3.00;62.80
28845;DHT22;15976;47.938;7.758;2024-01-16T12:21:10;3.00;62.60
28845;DHT22;15976;47.938;7.758;2024-01-16T12:23:38;3.00;62.60
28845;DHT22;15976;47.938;7.758;2024-01-16T12:26:22;3.00;62.70
28845;DHT22;15976;47.938;7.758;2024-01-16T12:28:53;3.00;62.50
28845;DHT22;15976;47.938;7.758;2024-01-16T12:31:29;3.10;62.40
28845;DHT22;15976;47.938;7.758;2024-01-16T12:34:06;3.10;62.20
28845;DHT22;15976;47.938;7.758;2024-01-16T12:36:37;3.20;62.00
28845;DHT22;15976;47.938;7.758;2024-01-16T12:39:05;3.20;61.90
28845;DHT22;15976;47.938;7.758;2024-01-16T12:41:43;3.20;61.50
28845;DHT22;15976;47.938;7.758;2024-01-16T12:44:19;3.20;61.20
28845;DHT22;15976;47.938;7.758;2024-01-16T12:46:56;3.20;61.10
28845;DHT22;15976;47.938;7.758;2024-01-16T12:49:23;3.20;60.80
28845;DHT22;15976;47.938;7.758;2024-01-16T12:51:51;3.30;61.60
28845;DHT22;15976;47.938;7.758;2024-01-16T12:54:39;3.30;60.80
28845;DHT22;15976;47.938;7.758;2024-01-16T12:57:06;3.40;60.60
28845;DHT22;15976;47.938;7.758;2024-01-16T12:59:40;3.40;60.40
28845;DHT22;15976;47.938;7.758;2024-01-16T13:02:07;3.40;60.40
28845;DHT22;15976;47.938;7.758;2024-01-16T13:04:35;3.40;60.20
28845;DHT22;15976;47.938;7.758;2024-01-16T13:07:03;3.40;60.50
28845;DHT22;15976;47.938;7.758;2024-01-16T13:09:31;3.40;60.60
28845;DHT22;15976;47.938;7.758;2024-01-16T13:11:59;3.50;60.60
28845;DHT22;15976;47.938;7.758;2024-01-16T13:14:27;3.50;60.60
28845;DHT22;15976;47.938;7.758;2024-01-16T13:16:56;3.60;60.50
28845;DHT22;15976;47.938;7.758;2024-01-16T13:19:23;3.60;60.30
28845;DHT22;15976;47.938;7.758;2024-01-16T13:21:51;3.60;60.00
28845;DHT22;15976;47.938;7.758;2024-01-16T13:24:19;3.70;60.00
28845;DHT22;15976;47.938;7.758;2024-01-16T13:26:49;3.70;59.90
28845;DHT22;15976;47.938;7.758;2024-01-16T13:29:17;3.70;59.70
28845;DHT22;15976;47.938;7.758;2024-01-16T13:31:44;3.70;60.20
28845;DHT22;15976;47.938;7.758;2024-01-16T13:34:11;3.70;59.50
28845;DHT22;15976;47.938;7.758;2024-01-16T13:36:40;3.70;59.50
28845;DHT22;15976;47.938;7.758;2024-01-16T13:39:29;3.70;59.50
28845;DHT22;15976;47.938;7.758;2024-01-16T13:41:59;3.70;59.40
28845;DHT22;15976;47.938;7.758;2024-01-16T13:44:26;3.70;59.30
28845;DHT22;15976;47.938;7.758;2024-01-16T13:46:54;3.70;59.10
28845;DHT22;15976;47.938;7.758;2024-01-16T13:49:34;3.80;58.70
28845;DHT22;15976;47.938;7.758;2024-01-16T13:52:02;3.80;58.40
28845;DHT22;15976;47.938;7.758;2024-01-16T13:54:30;3.80;58.40
28845;DHT22;15976;47.938;7.758;2024-01-16T13:56:58;3.80;58.30
28845;DHT22;15976;47.938;7.758;2024-01-16T13:59:40;3.70;58.30
28845;DHT22;15976;47.938;7.758;2024-01-16T14:02:08;3.80;58.20
28845;DHT22;15976;47.938;7.758;2024-01-16T14:04:37;3.80;58.00
28845;DHT22;15976;47.938;7.758;2024-01-16T14:07:05;3.80;57.80
28845;DHT22;15976;47.938;7.758;2024-01-16T14:09:35;3.80;57.90
28845;DHT22;15976;47.938;7.758;2024-01-16T14:12:04;3.70;58.00
28845;DHT22;15976;47.938;7.758;2024-01-16T14:14:36;3.70;57.90
28845;DHT22;15976;47.938;7.758;2024-01-16T14:17:05;3.70;57.80
28845;DHT22;15976;47.938;7.758;2024-01-16T14:19:36;3.70;57.70
28845;DHT22;15976;47.938;7.758;2024-01-16T14:22:05;3.80;57.70
28845;DHT22;15976;47.938;7.758;2024-01-16T14:24:33;3.70;57.60
28845;DHT22;15976;47.938;7.758;2024-01-16T14:27:01;3.70;57.70
28845;DHT22;15976;47.938;7.758;2024-01-16T14:29:28;3.70;57.60
28845;DHT22;15976;47.938;7.758;2024-01-16T14:31:56;3.70;57.60
28845;DHT22;15976;47.938;7.758;2024-01-16T14:34:25;3.70;57.60
28845;DHT22;15976;47.938;7.758;2024-01-16T14:36:53;3.70;57.50
28845;DHT22;15976;47.938;7.758;2024-01-16T14:39:21;3.70;57.50
28845;DHT22;15976;47.938;7.758;2024-01-16T14:41:53;3.70;57.60
28845;DHT22;15976;47.938;7.758;2024-01-16T14:44:20;3.70;57.70
28845;DHT22;15976;47.938;7.758;2024-01-16T14:46:48;3.70;57.70
28845;DHT22;15976;47.938;7.758;2024-01-16T14:49:19;3.70;57.80
28845;DHT22;15976;47.938;7.758;2024-01-16T14:51:48;3.70;57.70
28845;DHT22;15976;47.938;7.758;2024-01-16T14:54:15;3.60;57.70
28845;DHT22;15976;47.938;7.758;2024-01-16T14:56:42;3.60;57.80
28845;DHT22;15976;47.938;7.758;2024-01-16T14:59:10;3.60;58.00
28845;DHT22;15976;47.938;7.758;2024-01-16T15:01:42;3.60;58.20
28845;DHT22;15976;47.938;7.758;2024-01-16T15:04:10;3.50;58.30
28845;DHT22;15976;47.938;7.758;2024-01-16T15:06:42;3.50;58.50
28845;DHT22;15976;47.938;7.758;2024-01-16T15:09:09;3.60;58.50
28845;DHT22;15976;47.938;7.758;2024-01-16T15:11:40;3.50;58.50
28845;DHT22;15976;47.938;7.758;2024-01-16T15:14:13;3.50;58.60
28845;DHT22;15976;47.938;7.758;2024-01-16T15:16:41;3.50;58.70
28845;DHT22;15976;47.938;7.758;2024-01-16T15:19:08;3.40;58.80
28845;DHT22;15976;47.938;7.758;2024-01-16T15:21:35;3.40;58.90
28845;DHT22;15976;47.938;7.758;2024-01-16T15:24:03;3.40;59.00
28845;DHT22;15976;47.938;7.758;2024-01-16T15:26:31;3.30;59.20
28845;DHT22;15976;47.938;7.758;2024-01-16T15:28:58;3.30;59.30
28845;DHT22;15976;47.938;7.758;2024-01-16T15:31:26;3.30;59.50
28845;DHT22;15976;47.938;7.758;2024-01-16T15:33:53;3.20;59.50
28845;DHT22;15976;47.938;7.758;2024-01-16T15:36:22;3.20;59.70
28845;DHT22;15976;47.938;7.758;2024-01-16T15:38:49;3.10;59.70
28845;DHT22;15976;47.938;7.758;2024-01-16T15:41:16;3.00;59.80
28845;DHT22;15976;47.938;7.758;2024-01-16T15:43:43;2.90;60.30
28845;DHT22;15976;47.938;7.758;2024-01-16T15:46:11;2.80;60.70
28845;DHT22;15976;47.938;7.758;2024-01-16T15:48:38;2.80;60.70
28845;DHT22;15976;47.938;7.758;2024-01-16T15:51:05;2.80;60.70
28845;DHT22;15976;47.938;7.758;2024-01-16T15:53:36;2.60;60.70
28845;DHT22;15976;47.938;7.758;2024-01-16T15:56:03;2.50;60.90
28845;DHT22;15976;47.938;7.758;2024-01-16T15:58:34;2.40;61.20
28845;DHT22;15976;47.938;7.758;2024-01-16T16:01:01;2.30;61.40
28845;DHT22;15976;47.938;7.758;2024-01-16T16:03:29;2.20;61.50